Time;durP1;ratioP1;P1;durP2;ratioP2;P2;SDS_P1;SDS_P2;PMS_P1;PMS_P2;Temp;Humidity;BMP_temperature;BMP_pressure;BME280_temperature;BME280_humidity;BME280_pressure;Samples;Min_cycle;Max_cycle;Signal;HPM_P1;HPM_P2
2023/10/05 00:01:12;;;;;;;7.85;2.40;;;;;;;8.73;79.35;101449.66;4978993;28;20050;-82
2023/10/05 00:03:43;;;;;;;4.00;1.70;;;;;;;8.97;77.85;101446.38;4953633;28;20056;-82
2023/10/05 00:06:16;;;;;;;6.05;1.75;;;;;;;8.89;78.42;101440.19;4972833;28;20054;-87
2023/10/05 00:08:53;;;;;;;5.15;2.50;;;;;;;8.77;79.08;101440.09;4963661;28;20058;-82
2023/10/05 00:11:41;;;;;;;3.90;1.90;;;;;;;8.75;79.40;101441.81;4976774;28;20437;-84
2023/10/05 00:14:10;;;;;;;4.93;1.58;;;;;;;8.85;78.74;101449.75;4978879;28;20049;-88
2023/10/05 00:16:36;;;;;;;8.20;2.42;;;;;;;8.87;78.20;101447.16;4948153;28;20069;-82
2023/10/05 00:19:12;;;;;;;6.35;1.98;;;;;;;8.86;78.54;101443.69;4978680;28;20050;-82
2023/10/05 00:21:51;;;;;;;6.22;1.88;;;;;;;8.58;80.26;101437.31;4946822;28;20050;-86
2023/10/05 00:24:29;;;;;;;4.82;1.70;;;;;;;8.62;79.62;101436.47;4975329;28;20088;-82
2023/10/05 00:26:58;;;;;;;5.50;1.95;;;;;;;8.50;80.44;101431.13;4960790;28;20046;-81
2023/10/05 00:29:28;;;;;;;9.27;1.95;;;;;;;8.35;81.14;101429.22;4975476;28;20050;-83
2023/10/05 00:31:59;;;;;;;6.28;1.88;;;;;;;8.46;80.81;101427.63;4980805;28;20050;-82
2023/10/05 00:34:27;;;;;;;3.75;1.80;;;;;;;8.57;80.38;101424.22;4971449;28;20066;-81
2023/10/05 00:36:57;;;;;;;6.45;1.90;;;;;;;8.62;79.95;101420.78;4977737;28;20525;-82
2023/10/05 00:39:25;;;;;;;6.35;1.85;;;;;;;8.59;80.02;101420.75;4973365;28;20039;-81
2023/10/05 00:42:08;;;;;;;4.25;1.58;;;;;;;8.65;79.71;101419.94;4979963;28;20050;-81
2023/10/05 00:44:36;;;;;;;5.47;1.98;;;;;;;8.58;79.68;101419.00;4970046;28;20085;-82
2023/10/05 00:47:06;;;;;;;5.65;2.05;;;;;;;8.44;80.76;101412.72;4960325;28;20060;-82
2023/10/05 00:49:45;;;;;;;4.85;1.75;;;;;;;8.52;80.18;101409.34;4973294;28;20047;-82
2023/10/05 00:52:17;;;;;;;6.90;2.20;;;;;;;8.35;81.17;101406.53;4959673;28;20050;-82
2023/10/05 00:54:50;;;;;;;6.53;1.70;;;;;;;8.35;80.92;101403.06;4969592;28;20050;-84
2023/10/05 00:57:24;;;;;;;3.88;1.63;;;;;;;8.29;81.52;101406.50;4958462;28;20053;-82
2023/10/05 01:02:31;;;;;;;4.30;1.95;;;;;;;8.36;81.21;101410.91;4972521;28;20181;-82
2023/10/05 01:05:14;;;;;;;5.15;2.08;;;;;;;8.33;81.03;101416.13;4979019;28;20046;-83
2023/10/05 01:12:51;;;;;;;4.35;1.70;;;;;;;8.34;80.80;101394.34;4964744;28;20114;-82
2023/10/05 01:15:19;;;;;;;4.65;1.67;;;;;;;8.45;80.23;101390.97;4971355;28;20062;-82
2023/10/05 01:17:51;;;;;;;5.18;2.10;;;;;;;8.46;79.84;101397.97;4949435;28;20074;-81
2023/10/05 01:22:46;;;;;;;5.72;1.83;;;;;;;8.31;80.15;101391.72;4958549;28;20125;-86
2023/10/05 01:25:14;;;;;;;6.38;2.08;;;;;;;8.19;80.69;101394.19;4968952;28;20054;-82
2023/10/05 01:27:47;;;;;;;5.45;1.70;;;;;;;8.19;80.37;101400.28;4974321;28;20050;-83
2023/10/05 01:30:14;;;;;;;6.43;2.10;;;;;;;8.31;79.62;101399.56;4958438;28;20144;-81
2023/10/05 01:32:41;;;;;;;3.78;1.55;;;;;;;8.27;79.78;101403.00;4974533;28;20052;-82
2023/10/05 01:35:09;;;;;;;6.90;2.00;;;;;;;8.12;80.45;101400.22;4973702;28;20160;-83
2023/10/05 01:37:41;;;;;;;3.08;1.40;;;;;;;8.27;79.41;101395.16;4954981;28;20076;-82
2023/10/05 01:40:25;;;;;;;7.43;1.83;;;;;;;8.23;79.46;101390.75;4972628;28;20107;-85
2023/10/05 01:42:52;;;;;;;5.10;1.92;;;;;;;7.96;80.81;101402.66;4952702;28;20042;-84
2023/10/05 01:45:29;;;;;;;6.65;2.05;;;;;;;7.99;80.70;101407.03;4969672;28;20050;-82
2023/10/05 01:48:12;;;;;;;6.88;2.10;;;;;;;7.81;81.29;101405.13;4977986;28;20104;-82
2023/10/05 01:50:39;;;;;;;5.10;1.77;;;;;;;7.70;81.89;101402.34;4973415;28;20062;-82
2023/10/05 01:55:36;;;;;;;7.53;2.20;;;;;;;7.84;81.06;101381.63;4961648;28;20055;-84
2023/10/05 01:58:05;;;;;;;6.25;2.00;;;;;;;7.80;81.23;101387.66;4967795;28;20046;-82
2023/10/05 02:00:37;;;;;;;4.60;2.08;;;;;;;7.99;79.91;101394.88;4976211;28;20058;-83
2023/10/05 02:03:08;;;;;;;6.75;1.90;;;;;;;8.20;79.16;101398.56;4983105;28;20527;-87
2023/10/05 02:05:36;;;;;;;4.38;2.10;;;;;;;8.16;79.17;101395.03;4977752;28;20046;-82
2023/10/05 02:08:04;;;;;;;8.65;1.90;;;;;;;8.08;79.70;101398.44;4976267;28;20046;-82
2023/10/05 02:10:33;;;;;;;3.30;1.60;;;;;;;8.07;79.63;101394.94;4973296;28;20097;-84
2023/10/05 02:13:01;;;;;;;6.07;1.80;;;;;;;8.06;79.79;101393.19;4978907;28;20080;-84
2023/10/05 02:15:28;;;;;;;4.63;1.52;;;;;;;8.10;79.58;101381.03;4977004;28;20046;-82
2023/10/05 02:18:03;;;;;;;5.28;1.95;;;;;;;8.07;79.99;101388.84;4984785;28;20054;-85
2023/10/05 02:22:59;;;;;;;3.75;1.58;;;;;;;8.14;79.59;101381.06;4981411;28;20046;-83
2023/10/05 02:25:34;;;;;;;4.00;1.40;;;;;;;8.15;79.50;101371.47;4976936;28;20073;-82
2023/10/05 02:28:01;;;;;;;4.03;1.50;;;;;;;8.03;80.22;101376.59;4975908;28;20105;-83
2023/10/05 02:30:27;;;;;;;3.65;1.50;;;;;;;8.03;79.83;101372.25;4959771;28;20069;-83
2023/10/05 02:32:55;;;;;;;4.28;1.88;;;;;;;8.06;79.98;101376.63;4984575;28;20042;-82
2023/10/05 02:35:29;;;;;;;5.03;2.08;;;;;;;7.90;80.97;101379.06;4976305;28;20039;-82
2023/10/05 02:37:58;;;;;;;5.70;1.80;;;;;;;8.20;78.93;101372.41;4986093;28;20541;-82
2023/10/05 02:40:54;;;;;;;3.67;1.48;;;;;;;8.05;79.74;101380.09;4967385;28;20097;-82
2023/10/05 02:43:15;;;;;;;3.28;1.58;;;;;;;8.15;78.85;101369.75;4973212;28;20046;-83
2023/10/05 02:45:42;;;;;;;2.75;1.40;;;;;;;8.15;78.58;101374.09;4980201;28;20047;-82
2023/10/05 02:48:10;;;;;;;7.55;1.85;;;;;;;7.91;79.76;101380.84;4977710;28;20065;-89
2023/10/05 02:50:39;;;;;;;3.22;1.40;;;;;;;8.03;79.12;101376.59;4961335;28;20060;-82
2023/10/05 02:53:06;;;;;;;6.15;1.88;;;;;;;8.00;79.11;101375.69;4963856;28;20110;-83
2023/10/05 02:55:37;;;;;;;5.10;1.58;;;;;;;8.00;78.86;101367.84;4948109;28;20058;-85
2023/10/05 02:58:04;;;;;;;4.82;1.55;;;;;;;7.85;79.73;101367.72;4980856;28;20042;-83
2023/10/05 03:00:34;;;;;;;4.72;2.10;;;;;;;8.04;78.71;101362.66;4941295;28;21240;-83
2023/10/05 03:03:05;;;;;;;4.10;1.92;;;;;;;8.10;78.28;101374.06;4966432;28;20077;-85
2023/10/05 03:05:35;;;;;;;3.20;1.55;;;;;;;8.12;78.10;101382.78;4973414;28;20065;-83
2023/10/05 03:08:04;;;;;;;3.55;1.73;;;;;;;7.91;79.25;101383.44;4980034;28;20050;-87
2023/10/05 03:10:31;;;;;;;4.10;1.50;;;;;;;7.88;78.84;101383.41;4972943;28;20501;-87
2023/10/05 03:12:58;;;;;;;3.58;1.48;;;;;;;7.87;78.92;101386.03;4985560;28;20113;-82
2023/10/05 03:15:27;;;;;;;5.32;1.80;;;;;;;7.69;79.82;101386.66;4978198;28;20097;-82
2023/10/05 03:17:57;;;;;;;5.93;1.50;;;;;;;7.86;78.47;101382.50;4985423;28;20105;-86
2023/10/05 03:20:24;;;;;;;4.72;1.48;;;;;;;7.92;77.89;101385.22;4976756;28;20046;-84
2023/10/05 03:22:55;;;;;;;5.03;1.50;;;;;;;7.91;78.63;101387.81;4975303;28;20114;-82
2023/10/05 03:25:23;;;;;;;5.72;1.80;;;;;;;7.66;79.89;101383.16;4972212;28;20130;-87
2023/10/05 03:27:50;;;;;;;4.93;1.88;;;;;;;7.77;79.75;101385.03;4972274;28;20121;-82
2023/10/05 03:30:17;;;;;;;5.15;1.70;;;;;;;7.75;80.22;101386.72;4964428;28;20048;-88
2023/10/05 03:32:48;;;;;;;5.75;1.88;;;;;;;7.62;80.92;101397.06;4976587;28;20054;-83
2023/10/05 03:35:22;;;;;;;3.83;1.48;;;;;;;7.58;80.95;101402.22;4976478;28;20054;-83
2023/10/05 03:37:49;;;;;;;3.38;1.92;;;;;;;7.65;80.36;101397.09;4973628;28;20050;-82
2023/10/05 03:40:22;;;;;;;10.73;3.65;;;;;;;7.60;81.18;101413.56;4977288;28;20130;-85
2023/10/05 03:42:57;;;;;;;;;;;;;;;7.82;80.25;101417.31;4959977;28;20062;-83
2023/10/05 03:45:24;;;;;;;3.42;1.70;;;;;;;7.75;81.27;101428.53;4943137;28;20405;-87
2023/10/05 03:47:53;;;;;;;7.03;1.83;;;;;;;7.62;81.99;101417.94;4975270;28;20490;-83
2023/10/05 03:50:21;;;;;;;4.13;1.65;;;;;;;7.72;80.45;101418.06;4966022;28;20124;-82
2023/10/05 03:52:48;;;;;;;7.10;2.20;;;;;;;7.81;80.77;101418.19;4970679;28;20046;-82
2023/10/05 03:55:21;;;;;;;5.03;1.60;;;;;;;7.87;79.63;101414.78;4971280;28;20046;-84
2023/10/05 03:57:49;;;;;;;4.72;1.67;;;;;;;7.99;79.54;101407.94;4982427;28;20509;-81
2023/10/05 04:00:22;;;;;;;5.97;1.83;;;;;;;8.07;79.19;101413.25;4970964;28;20046;-82
2023/10/05 04:02:52;;;;;;;4.68;1.73;;;;;;;7.98;79.75;101411.41;4980553;28;20445;-80
2023/10/05 04:05:22;;;;;;;7.43;1.92;;;;;;;7.93;79.74;101400.00;4973563;28;20109;-81
2023/10/05 04:07:55;;;;;;;5.53;1.80;;;;;;;7.94;79.62;101404.38;4982202;28;20058;-82
2023/10/05 04:10:34;;;;;;;3.78;1.58;;;;;;;7.95;79.01;101403.53;4975542;28;20097;-82
2023/10/05 04:13:01;;;;;;;5.20;1.48;;;;;;;7.95;78.62;101406.16;4978553;28;20102;-83
2023/10/05 04:15:29;;;;;;;3.55;1.58;;;;;;;7.87;79.03;101407.78;4954044;28;20053;-84
2023/10/05 04:17:56;;;;;;;3.58;1.60;;;;;;;7.91;78.82;101411.34;4980066;28;20050;-83
2023/10/05 04:20:28;;;;;;;5.40;1.92;;;;;;;7.76;79.81;101394.63;4977896;28;20504;-88
2023/10/05 04:22:56;;;;;;;5.80;1.80;;;;;;;7.84;80.27;101398.16;4974123;28;20061;-85
2023/10/05 04:25:23;;;;;;;7.90;2.50;;;;;;;7.80;81.06;101398.13;4971016;28;20050;-83
2023/10/05 04:27:50;;;;;;;5.07;2.03;;;;;;;7.92;79.63;101390.44;4979390;28;20490;-84
2023/10/05 04:30:20;;;;;;;4.78;1.88;;;;;;;7.85;80.25;101396.47;4970764;28;20061;-85
2023/10/05 04:32:48;;;;;;;6.63;2.00;;;;;;;7.81;81.17;101397.28;4965130;28;20051;-83
2023/10/05 04:35:28;;;;;;;4.57;1.65;;;;;;;7.91;79.78;101401.75;4972475;28;20137;-83
2023/10/05 04:37:56;;;;;;;3.88;1.63;;;;;;;7.99;78.53;101397.50;4982439;28;20046;-83
2023/10/05 04:40:24;;;;;;;4.72;1.70;;;;;;;7.94;79.14;101393.94;4975574;28;20038;-83
2023/10/05 04:42:58;;;;;;;5.65;1.52;;;;;;;7.94;78.92;101393.06;4967730;28;20046;-85
2023/10/05 04:45:27;;;;;;;4.68;1.60;;;;;;;7.96;79.16;101392.19;4966855;28;20057;-82
2023/10/05 04:47:58;;;;;;;4.45;2.08;;;;;;;7.97;79.52;101391.34;4981856;28;20047;-84
2023/10/05 04:50:27;;;;;;;4.20;1.70;;;;;;;7.98;79.63;101398.34;4972468;28;20485;-83
2023/10/05 04:52:54;;;;;;;5.32;1.60;;;;;;;7.89;79.97;101395.59;4979957;28;20053;-82
2023/10/05 04:55:31;;;;;;;3.83;1.60;;;;;;;7.99;79.28;101392.25;4958655;28;20042;-82
2023/10/05 05:08:34;;;;;;;3.38;1.50;;;;;;;7.81;79.75;101381.59;4969446;28;20080;-86
2023/10/05 05:11:02;;;;;;;3.25;1.65;;;;;;;7.79;80.02;101373.75;4971357;28;20046;-82
2023/10/05 05:13:29;;;;;;;7.20;1.83;;;;;;;7.85;79.67;101378.16;4960945;28;20065;-82
2023/10/05 05:15:57;;;;;;;5.10;1.88;;;;;;;7.80;80.04;101369.38;4973113;28;20046;-82
2023/10/05 05:18:24;;;;;;;6.70;2.40;;;;;;;7.81;80.66;101371.16;4975504;28;20098;-86
2023/10/05 05:20:53;;;;;;;4.03;1.60;;;;;;;7.76;80.52;101375.44;4979976;28;20054;-82
2023/10/05 05:23:20;;;;;;;5.03;2.10;;;;;;;7.71;80.96;101384.97;4971681;28;20101;-83
2023/10/05 05:25:51;;;;;;;4.22;1.73;;;;;;;7.65;81.14;101370.97;4970310;28;20054;-81
2023/10/05 05:28:18;;;;;;;5.35;2.10;;;;;;;7.61;81.56;101373.53;4972045;28;20141;-81
2023/10/05 05:30:47;;;;;;;8.02;2.30;;;;;;;7.66;81.64;101374.44;4964626;28;20124;-82
2023/10/05 05:33:14;;;;;;;5.50;1.90;;;;;;;7.77;80.16;101383.28;4975583;28;20065;-81
2023/10/05 05:35:40;;;;;;;5.10;2.00;;;;;;;7.81;80.15;101389.44;4963527;28;20054;-84
2023/10/05 05:38:10;;;;;;;6.88;1.60;;;;;;;7.80;79.52;101387.66;4977088;28;20049;-82
2023/10/05 05:40:40;;;;;;;11.35;2.83;;;;;;;7.75;80.79;101405.03;4976876;28;20056;-85
2023/10/05 05:43:08;;;;;;;5.32;1.70;;;;;;;7.90;79.98;101404.34;4979134;28;20046;-82
2023/10/05 05:45:39;;;;;;;4.25;1.63;;;;;;;7.92;79.48;101405.22;4975705;28;20053;-81
2023/10/05 05:48:10;;;;;;;5.35;1.85;;;;;;;7.83;80.93;101406.00;4976470;28;20051;-82
2023/10/05 05:50:39;;;;;;;5.63;1.80;;;;;;;7.89;80.29;101416.50;4969344;28;20139;-82
2023/10/05 05:53:11;;;;;;;4.50;1.58;;;;;;;8.06;79.03;101408.88;4980186;28;20082;-82
2023/10/05 05:55:44;;;;;;;4.50;1.83;;;;;;;7.99;79.31;101413.16;4973799;28;20112;-82
2023/10/05 05:58:14;;;;;;;7.68;2.10;;;;;;;7.99;79.41;101423.63;4973802;28;20064;-82
2023/10/05 06:00:41;;;;;;;4.93;2.08;;;;;;;7.99;79.56;101422.72;4967403;28;20054;-82
2023/10/05 06:03:11;;;;;;;7.85;2.50;;;;;;;7.96;81.01;101418.34;4970088;28;20054;-82
2023/10/05 06:05:38;;;;;;;4.47;1.83;;;;;;;7.99;80.90;101415.78;4972154;28;20064;-82
2023/10/05 06:08:09;;;;;;;4.63;1.75;;;;;;;8.00;80.13;101414.91;4977459;28;20046;-83
2023/10/05 06:10:36;;;;;;;3.88;1.58;;;;;;;8.11;79.14;101421.97;4973699;28;20056;-82
2023/10/05 06:13:05;;;;;;;5.97;2.20;;;;;;;8.03;81.82;101424.53;4981190;28;20057;-83
2023/10/05 06:15:34;;;;;;;10.30;3.28;;;;;;;8.01;82.04;101426.25;4971809;28;20121;-82
2023/10/05 06:18:02;;;;;;;5.43;2.13;;;;;;;8.15;79.55;101439.47;4976026;28;20051;-83
2023/10/05 06:20:30;;;;;;;5.03;1.90;;;;;;;8.12;79.96;101429.84;4960610;28;20062;-83
2023/10/05 06:22:57;;;;;;;5.20;2.25;;;;;;;8.16;79.66;101430.78;4974815;28;20054;-81
2023/10/05 06:25:27;;;;;;;5.05;2.30;;;;;;;8.11;80.66;101450.75;4972648;28;20046;-82
2023/10/05 06:27:54;;;;;;;4.00;1.83;;;;;;;7.97;82.43;101445.38;4969367;28;20054;-82
2023/10/05 06:30:21;;;;;;;4.65;2.10;;;;;;;8.12;80.97;101428.97;4959352;28;20133;-83
2023/10/05 06:32:48;;;;;;;5.95;1.95;;;;;;;8.09;81.20;101424.59;4979584;28;20145;-82
2023/10/05 06:35:17;;;;;;;5.05;1.88;;;;;;;8.12;81.25;101423.75;4974463;28;20050;-82
2023/10/05 06:37:44;;;;;;;5.07;2.00;;;;;;;8.12;82.54;101424.63;4981473;28;20484;-82
2023/10/05 06:40:21;;;;;;;5.45;1.85;;;;;;;8.16;83.14;101425.53;4976891;28;20066;-83
2023/10/05 06:42:49;;;;;;;7.32;1.92;;;;;;;8.20;82.46;101429.94;4984396;28;20050;-82
2023/10/05 06:45:19;;;;;;;4.70;1.90;;;;;;;8.34;81.40;101433.56;4972792;28;20060;-82
2023/10/05 06:47:46;;;;;;;3.88;1.67;;;;;;;8.39;81.63;101425.78;4984320;28;20080;-81
2023/10/05 06:50:12;;;;;;;6.28;2.00;;;;;;;8.40;83.20;101427.53;4969880;28;20042;-83
2023/10/05 06:52:42;;;;;;;4.50;1.90;;;;;;;8.38;82.38;101436.22;4971056;28;20060;-83
2023/10/05 06:55:14;;;;;;;5.80;2.05;;;;;;;8.44;83.00;101436.28;4978789;28;20664;-91
2023/10/05 06:57:44;;;;;;;6.20;1.95;;;;;;;8.52;81.68;101434.66;4963908;28;20108;-83
2023/10/05 07:00:27;;;;;;;6.88;2.25;;;;;;;8.66;83.57;101427.81;4955905;28;20046;-87
2023/10/05 07:03:15;;;;;;;5.40;1.98;;;;;;;8.78;82.69;101444.47;4825775;28;20047;-85
2023/10/05 07:05:56;;;;;;;10.80;2.08;;;;;;;8.90;83.48;101446.31;4821300;29;20190;-82
2023/10/05 07:08:23;;;;;;;7.80;2.65;;;;;;;8.98;83.30;101452.47;4959595;28;20046;-82
2023/10/05 07:10:54;;;;;;;5.22;2.35;;;;;;;8.97;82.54;101448.97;4976778;28;20065;-82
2023/10/05 07:13:22;;;;;;;8.27;2.53;;;;;;;8.99;82.53;101455.13;4970583;28;20050;-83
2023/10/05 07:15:50;;;;;;;8.68;2.40;;;;;;;9.04;83.06;101449.91;4980637;28;20054;-86
2023/10/05 07:18:19;;;;;;;5.25;2.03;;;;;;;9.18;83.29;101463.09;4972835;28;20105;-85
2023/10/05 07:20:46;;;;;;;6.05;2.05;;;;;;;9.20;82.38;101466.63;4978259;28;20046;-83
2023/10/05 07:23:13;;;;;;;5.68;2.00;;;;;;;9.37;83.25;101464.09;4972402;28;20053;-84
2023/10/05 07:25:41;;;;;;;5.22;2.53;;;;;;;9.53;83.55;101470.28;4982899;28;20141;-82
2023/10/05 07:28:14;;;;;;;4.97;1.90;;;;;;;9.62;83.22;101475.59;4972423;28;20129;-83
2023/10/05 07:30:43;;;;;;;6.47;2.45;;;;;;;9.69;83.33;101485.25;4975535;28;20054;-84
2023/10/05 07:33:11;;;;;;;6.18;2.42;;;;;;;9.78;83.09;101470.44;4943741;28;20058;-92
2023/10/05 07:35:41;;;;;;;10.20;2.60;;;;;;;9.90;83.08;101480.97;4930772;28;20051;-83
2023/10/05 07:38:11;;;;;;;8.93;2.45;;;;;;;9.97;82.80;101488.00;4956571;28;20050;-83
2023/10/05 07:40:39;;;;;;;7.93;2.40;;;;;;;10.00;83.12;101493.25;4974671;28;20042;-83
2023/10/05 07:43:06;;;;;;;8.10;2.55;;;;;;;10.02;82.98;101491.53;4963548;28;20043;-81
2023/10/05 07:45:33;;;;;;;7.88;2.65;;;;;;;10.12;82.96;101491.53;4974300;28;20067;-82
2023/10/05 07:48:01;;;;;;;9.80;2.78;;;;;;;10.15;82.38;101495.03;4980558;28;20398;-84
2023/10/05 07:50:28;;;;;;;9.35;2.20;;;;;;;10.20;82.58;101497.72;4973595;28;20050;-81
2023/10/05 07:52:57;;;;;;;5.63;2.47;;;;;;;10.31;82.77;101487.22;4983230;28;20068;-83
2023/10/05 07:55:25;;;;;;;13.82;3.30;;;;;;;10.37;82.78;101492.53;4972891;28;20047;-81
2023/10/05 07:57:52;;;;;;;14.00;2.95;;;;;;;10.49;82.33;101497.81;4966095;28;20054;-82
2023/10/05 08:00:20;;;;;;;8.25;2.40;;;;;;;10.67;81.97;101496.94;4970431;28;20054;-81
2023/10/05 08:02:47;;;;;;;8.57;2.90;;;;;;;10.87;81.90;101504.00;4981892;28;20050;-81
2023/10/05 08:05:15;;;;;;;8.75;2.75;;;;;;;10.96;81.05;101496.09;4962915;28;20060;-86
2023/10/05 08:07:44;;;;;;;6.05;2.67;;;;;;;11.16;80.55;101495.25;4978318;28;20054;-81
2023/10/05 08:10:15;;;;;;;8.60;2.67;;;;;;;11.27;80.79;101491.72;4975404;28;20057;-90
2023/10/05 08:12:43;;;;;;;9.25;3.80;;;;;;;11.41;80.66;101493.44;4973440;28;20046;-81
2023/10/05 08:15:19;;;;;;;7.75;2.67;;;;;;;11.46;80.26;101487.31;4913411;28;20446;-81
2023/10/05 08:17:48;;;;;;;8.15;2.50;;;;;;;11.63;80.10;101486.41;4978223;28;20054;-83
2023/10/05 08:20:17;;;;;;;7.07;2.50;;;;;;;11.82;79.57;101482.81;4973256;28;20120;-81
2023/10/05 08:22:49;;;;;;;9.05;2.83;;;;;;;12.05;79.33;101494.16;4982947;28;20046;-81
2023/10/05 08:25:16;;;;;;;10.88;3.00;;;;;;;12.21;78.21;101494.97;4962439;28;20051;-81
2023/10/05 08:27:43;;;;;;;9.23;2.35;;;;;;;12.61;77.27;101484.19;4982456;28;20137;-81
2023/10/05 08:30:12;;;;;;;10.52;2.40;;;;;;;12.79;75.81;101489.34;4977301;28;20046;-91
2023/10/05 08:32:39;;;;;;;8.93;2.80;;;;;;;12.99;73.58;101485.66;4951054;28;20130;-81
2023/10/05 08:35:12;;;;;;;9.82;3.00;;;;;;;13.11;75.74;101482.94;4980672;28;20042;-81
2023/10/05 08:37:47;;;;;;;;;;;;;;;13.15;75.18;101482.03;4962713;28;20046;-83
2023/10/05 08:43:09;;;;;;;9.25;2.72;;;;;;;13.31;74.64;101482.75;4981095;28;20046;-81
2023/10/05 08:45:45;;;;;;;6.15;2.45;;;;;;;13.48;73.86;101489.63;4946783;28;20052;-81
2023/10/05 08:48:28;;;;;;;7.32;2.50;;;;;;;13.63;73.96;101494.75;4965978;28;20101;-82
2023/10/05 08:51:04;;;;;;;7.82;2.28;;;;;;;13.82;73.07;101500.69;4981327;28;20053;-83
2023/10/05 08:53:32;;;;;;;7.40;2.53;;;;;;;13.89;72.48;101493.59;4975193;28;20058;-83
2023/10/05 08:55:59;;;;;;;8.07;2.13;;;;;;;14.01;72.13;101495.19;4982408;28;20046;-84
2023/10/05 08:58:28;;;;;;;5.70;2.20;;;;;;;14.12;71.40;101487.13;4958540;28;20060;-86
2023/10/05 09:01:02;;;;;;;10.60;2.45;;;;;;;14.03;69.14;101482.84;4980734;28;20054;-82
2023/10/05 09:03:37;;;;;;;7.28;2.03;;;;;;;14.00;69.49;101494.31;4955923;28;20057;-84
2023/10/05 09:06:13;;;;;;;12.48;2.78;;;;;;;14.26;70.86;101499.28;4980177;28;20046;-82
2023/10/05 09:08:51;;;;;;;5.07;2.20;;;;;;;14.39;69.99;101505.22;4973133;28;20348;-84
2023/10/05 09:11:31;;;;;;;10.45;2.33;;;;;;;14.35;66.94;101500.91;4968011;28;20366;-82
2023/10/05 09:14:20;;;;;;;8.13;2.03;;;;;;;14.35;65.78;101500.91;4978298;28;20051;-83
2023/10/05 09:16:47;;;;;;;9.73;2.75;;;;;;;14.48;66.95;101500.72;4940272;28;20055;-82
2023/10/05 09:19:35;;;;;;;6.63;2.00;;;;;;;14.65;67.74;101503.16;4971542;28;20054;-85
2023/10/05 09:22:14;;;;;;;11.05;2.50;;;;;;;14.86;67.29;101507.22;4977884;28;20053;-83
2023/10/05 09:24:52;;;;;;;7.32;1.90;;;;;;;14.97;64.29;101504.41;4971915;28;20145;-83
2023/10/05 09:27:20;;;;;;;9.55;1.80;;;;;;;15.08;63.55;101508.63;4968455;28;20042;-83
2023/10/05 09:29:48;;;;;;;5.30;1.85;;;;;;;15.22;64.90;101499.56;4977792;28;20719;-83
2023/10/05 09:32:30;;;;;;;6.85;1.88;;;;;;;15.32;63.02;101500.28;4970683;28;20129;-83
2023/10/05 09:35:00;;;;;;;7.78;2.10;;;;;;;15.29;64.46;101502.09;4977728;28;20054;-84
2023/10/05 09:37:28;;;;;;;5.03;1.67;;;;;;;15.27;63.06;101497.75;4973021;28;20046;-84
2023/10/05 09:39:59;;;;;;;7.47;2.03;;;;;;;15.23;63.61;101501.34;4977645;28;20046;-84
2023/10/05 09:42:27;;;;;;;7.90;2.10;;;;;;;15.75;62.38;101484.47;4973871;28;20046;-83
2023/10/05 09:44:54;;;;;;;6.53;1.98;;;;;;;15.81;61.10;101495.00;4972285;28;20062;-84
2023/10/05 09:47:46;;;;;;;6.25;1.90;;;;;;;15.46;59.45;101487.69;4955774;28;20047;-83
2023/10/05 09:50:13;;;;;;;5.82;1.88;;;;;;;15.60;59.06;101490.94;4957709;28;20050;-83
2023/10/05 09:52:43;;;;;;;7.28;1.73;;;;;;;16.05;60.46;101491.84;4963365;28;20050;-84
2023/10/05 09:55:19;;;;;;;6.03;1.88;;;;;;;16.36;58.65;101497.34;4970939;28;20050;-91
2023/10/05 09:57:46;;;;;;;3.40;1.40;;;;;;;16.47;57.11;101494.47;4980581;28;20050;-85
2023/10/05 10:03:03;;;;;;;5.22;1.30;;;;;;;16.51;55.24;101488.16;4978510;28;20166;-85
2023/10/05 10:05:36;;;;;;;4.82;1.50;;;;;;;16.54;54.35;101493.44;4971376;28;20136;-89
2023/10/05 10:08:12;;;;;;;5.40;1.40;;;;;;;16.78;54.94;101493.75;4961637;28;20057;-84
2023/10/05 10:10:51;;;;;;;7.43;1.60;;;;;;;16.99;54.30;101484.44;4949666;28;20055;-87
2023/10/05 10:13:22;;;;;;;5.68;1.65;;;;;;;17.40;53.72;101481.59;4956930;28;20046;-86
2023/10/05 10:15:53;;;;;;;3.47;1.10;;;;;;;17.15;53.70;101475.16;4982635;28;20085;-85
2023/10/05 10:18:30;;;;;;;4.10;1.25;;;;;;;17.43;53.25;101477.06;4976557;28;20082;-85
2023/10/05 10:20:58;;;;;;;2.17;1.10;;;;;;;17.36;52.42;101486.97;4967414;28;20081;-84
2023/10/05 10:23:38;;;;;;;5.43;1.40;;;;;;;17.25;53.12;101488.16;4974899;28;20047;-84
2023/10/05 10:26:24;;;;;;;2.92;1.08;;;;;;;17.32;52.35;101487.09;4981981;28;20042;-87
2023/10/05 10:31:42;;;;;;;6.20;1.17;;;;;;;17.77;51.20;101496.50;4978381;28;20054;-86
2023/10/05 10:34:28;;;;;;;5.40;1.38;;;;;;;17.95;51.37;101495.16;4981639;28;20065;-89
2023/10/05 10:36:56;;;;;;;5.20;1.23;;;;;;;17.98;49.33;101495.06;4984133;28;20134;-85
2023/10/05 10:39:31;;;;;;;4.03;1.50;;;;;;;18.01;50.99;101500.28;4975598;28;20054;-85
2023/10/05 10:42:44;;;;;;;5.22;1.35;;;;;;;17.99;49.86;101502.13;4981212;28;20043;-85
2023/10/05 10:47:22;;;;;;;3.53;1.63;;;;;;;18.10;50.71;101501.78;4963564;28;20117;-87
2023/10/05 10:50:11;;;;;;;4.10;1.43;;;;;;;17.59;50.46;101493.44;4984152;28;20121;-87
2023/10/05 10:52:38;;;;;;;3.85;1.20;;;;;;;18.05;50.19;101508.09;4978618;28;20089;-85
2023/10/05 10:55:14;;;;;;;5.22;1.10;;;;;;;18.07;50.04;101500.97;4973931;28;20104;-85
2023/10/05 10:57:46;;;;;;;4.10;1.35;;;;;;;17.87;50.80;101511.25;4971453;28;20061;-86
2023/10/05 11:03:10;;;;;;;3.60;1.17;;;;;;;18.38;51.36;101492.06;4982795;28;20057;-85
2023/10/05 11:05:43;;;;;;;4.38;1.20;;;;;;;17.97;50.43;101478.22;4977441;28;20125;-87
2023/10/05 11:08:11;;;;;;;2.42;0.82;;;;;;;18.22;50.20;101482.84;4981210;28;20050;-92
2023/10/05 11:10:42;;;;;;;4.38;1.05;;;;;;;18.04;48.81;101479.78;4962774;28;20399;-85
2023/10/05 11:13:18;;;;;;;5.95;1.45;;;;;;;17.69;49.93;101472.84;4978400;28;20141;-90
2023/10/05 11:15:58;;;;;;;4.20;0.60;;;;;;;17.64;49.69;101472.97;4978531;28;20050;-86
2023/10/05 11:18:30;;;;;;;2.70;1.05;;;;;;;17.51;49.36;101468.88;4975108;28;20069;-85
2023/10/05 11:21:18;;;;;;;2.28;0.98;;;;;;;17.53;50.18;101472.38;4984465;28;20050;-85
2023/10/05 11:23:55;;;;;;;3.75;1.00;;;;;;;17.53;50.74;101472.38;4980814;28;20046;-85
2023/10/05 11:26:33;;;;;;;5.75;1.17;;;;;;;17.60;50.14;101467.75;4958106;28;20077;-85
2023/10/05 11:29:20;;;;;;;3.35;1.08;;;;;;;17.50;50.33;101470.69;4960642;28;20046;-86
2023/10/05 11:31:51;;;;;;;3.67;0.90;;;;;;;17.27;51.02;101465.16;4974379;28;20050;-86
2023/10/05 11:34:42;;;;;;;3.22;1.00;;;;;;;17.25;50.74;101465.19;4948995;28;20073;-86
2023/10/05 11:37:32;;;;;;;2.97;1.00;;;;;;;17.61;50.55;101465.09;4964081;28;20240;-86
2023/10/05 11:40:01;;;;;;;2.55;0.90;;;;;;;17.27;50.75;101476.63;4977839;28;20081;-86
2023/10/05 11:42:34;;;;;;;3.15;0.80;;;;;;;17.07;50.67;101486.88;4965209;28;20208;-87
2023/10/05 11:45:12;;;;;;;1.63;0.93;;;;;;;17.32;50.19;101501.25;4962245;28;20065;-85
2023/10/05 11:47:45;;;;;;;3.58;0.80;;;;;;;17.10;52.16;101490.31;4957444;28;20050;-85
2023/10/05 11:50:24;;;;;;;;;;;;;;;17.16;51.57;101484.88;4974730;28;20064;-86
2023/10/05 11:52:55;;;;;;;2.35;1.05;;;;;;;17.24;51.84;101473.19;4982183;28;19928;-86
2023/10/05 11:55:22;;;;;;;2.10;0.70;;;;;;;17.34;51.30;101475.53;4970691;28;20514;-85
2023/10/05 11:57:49;;;;;;;1.90;0.70;;;;;;;17.18;51.06;101461.81;4982897;28;20429;-86
2023/10/05 12:00:16;;;;;;;5.78;1.10;;;;;;;17.03;51.30;101473.69;4964957;28;20058;-85
2023/10/05 12:02:46;;;;;;;7.72;1.15;;;;;;;16.87;53.14;101472.28;4979786;28;20058;-85
2023/10/05 12:05:14;;;;;;;3.25;0.95;;;;;;;16.95;52.25;101459.75;4945130;28;20047;-85
2023/10/05 12:07:45;;;;;;;2.20;0.80;;;;;;;16.85;52.57;101466.19;4980710;28;20057;-86
2023/10/05 12:10:13;;;;;;;1.85;0.90;;;;;;;16.74;53.33;101468.22;4976344;28;20104;-86
2023/10/05 12:12:41;;;;;;;2.70;1.00;;;;;;;16.66;52.49;101457.81;4979626;28;20058;-86
2023/10/05 12:15:17;;;;;;;2.75;0.82;;;;;;;16.63;52.98;101456.09;4981224;28;20054;-85
2023/10/05 12:17:45;;;;;;;1.77;0.77;;;;;;;16.60;53.34;101450.88;4957815;28;20054;-85
2023/10/05 12:20:14;;;;;;;3.40;0.80;;;;;;;16.38;53.57;101449.63;4967434;28;20061;-86
2023/10/05 12:22:42;;;;;;;1.75;0.80;;;;;;;16.46;54.79;101445.91;4960138;28;20142;-85
2023/10/05 12:25:14;;;;;;;1.60;1.08;;;;;;;16.48;54.03;101443.22;4976873;28;20073;-90
2023/10/05 12:27:42;;;;;;;3.42;0.68;;;;;;;16.29;53.80;101448.97;4971961;28;20057;-86
2023/10/05 12:30:16;;;;;;;3.05;0.93;;;;;;;16.52;54.53;101439.59;4977779;28;20053;-86